New Chitose Airport
RJCC : now visible

Airfield :











YOU CAN JOIN US ON...

 
LOGIN :

Register | Disclaimer

   EN    FR    IT 

 









Legend :    VFR   Marginal VFR   IFR   Intensive IFR   Very Intensive IFR
Visi :
Ceiling :
>= 8 km
>= 3000ft
5 to 8 km
1000 to 3000 ft
1500m to 5 km
500 to 1000 ft
800 to 1500m
200 to 500 ft
< 800m
< 200 ft
Symbols :   Thunderstorms  Fog  Heavy snow  Heavy precipitations  Wind > 20 kt







- Airport Elevation : 82 ft
- IATA code : CTS


RJCC - New Chitose

CURRENT METAR :
  • 261930Z VRB01KT CAVOK 12/11 Q1013 RMK A2994

EXPIRED METARs :
  • 261900Z 25002KT CAVOK 12/10 Q1014 RMK A2995
  • 261830Z 22003KT 190V260 CAVOK 11/10 Q1013 RMK A2994
  • 261800Z 22003KT 180V240 CAVOK 12/11 Q1013 RMK A2994
  • 261730Z 24003KT CAVOK 13/11 Q1013 RMK A2994
  • 261700Z VRB01KT CAVOK 12/10 Q1014 RMK A2994

TAF TAF RJCC
Valid from the 26 at 18:00 until the 28 at 00:00 UTC


261705Z 2618/2800 16005KT 9999 FEW030
BECMG 2701/2703 17015KT
RJJJ FIR / Asia



MET'MAP, your aeronautical weather chart ! - Copyright ORBIFLY December 2007 - Disclaimer

ORBIFLY MET'MAP TEAM :

Programming & Development : Alexandra Zaïnal
Concept & Development : Baudouin d'Aumeries
Co-Development & Prog : Marc-Olivier Méhu
Technical & hardware support : Manuel Goepfert

Contact : metmap@orbifly.com




SOURCES & CREDITS :

   NOAA       Earth
Advisory